No particular awareness of the weather is required.    There are no Weather-warnings


Meteo18 Weather Cam more information Meteo18 Weather Cam


Thunder radar more information blitzortung!


Rain radar more information rain snow radar


Visit our other weather sites:

Template documentation
and downloads

And another site



Weather Underground History page Text

Daily Summary for May 26, 2017 Units:  Metric    English   Both
« Previous Day
Next Day »
Daily Weekly Monthly Yearly Custom
  High: Low: Average:
Temperature: 29.2 °C 13.3 °C 21.1 °C
Dew Point: 17.9 °C 10.9 °C 14.4 °C
Humidity: 87 % 45 % 67 %
Wind Speed: 16.1 km/h 0.0 km/h 4 km/h
Wind Gust: 19.3 km/h - -
Wind:- - East
Pressure: 1018.5 hPa 1014.1 hPa -
Precipitation: 0.0 mm    
Historical Graphs
 
 
Tabular Data for May 26, 2017
Time Temperature Dew Point Pressure Wind Wind Speed Wind Gust Humidity Rainfall Rate (Hourly)
00:02 18.1 °C 12.3 °C 1018.5 hPa NE 6.4 km/h 9.7 km/h 69 % 0.0 mm
00:12 17.6 °C 12.3 °C 1018.2 hPa NE 6.4 km/h 9.7 km/h 71 % 0.0 mm
00:17 17.3 °C 12.2 °C 1018.2 hPa NE 6.4 km/h 9.7 km/h 72 % 0.0 mm
00:22 17.2 °C 12.3 °C 1018.5 hPa ENE 4.8 km/h 11.3 km/h 73 % 0.0 mm
00:32 17.2 °C 12.3 °C 1018.2 hPa NE 8.0 km/h 12.9 km/h 73 % 0.0 mm
00:37 17.3 °C 12.2 °C 1018.2 hPa NNE 6.4 km/h 12.9 km/h 72 % 0.0 mm
00:42 17.4 °C 12.3 °C 1018.2 hPa NNE 8.0 km/h 16.1 km/h 72 % 0.0 mm
00:47 17.4 °C 12.3 °C 1018.2 hPa NE 9.7 km/h 16.1 km/h 72 % 0.0 mm
00:57 17.4 °C 12.1 °C 1018.2 hPa NE 9.7 km/h 12.9 km/h 71 % 0.0 mm
01:02 17.3 °C 12.2 °C 1018.2 hPa NNE 8.0 km/h 12.9 km/h 72 % 0.0 mm
01:07 17.2 °C 12.1 °C 1018.2 hPa NE 8.0 km/h 12.9 km/h 72 % 0.0 mm
01:12 17.0 °C 12.1 °C 1018.2 hPa NE 6.4 km/h 12.9 km/h 73 % 0.0 mm
01:17 16.9 °C 12.0 °C 1017.8 hPa NE 6.4 km/h 12.9 km/h 73 % 0.0 mm
01:27 16.9 °C 11.8 °C 1018.2 hPa NNE 9.7 km/h 12.9 km/h 72 % 0.0 mm
01:32 17.0 °C 11.9 °C 1017.8 hPa North 4.8 km/h 12.9 km/h 72 % 0.0 mm
01:37 17.1 °C 12.0 °C 1017.8 hPa NNE 9.7 km/h 11.3 km/h 72 % 0.0 mm
01:42 17.0 °C 11.9 °C 1017.8 hPa NNE 4.8 km/h 11.3 km/h 72 % 0.0 mm
01:47 16.7 °C 11.8 °C 1017.8 hPa NNW 1.6 km/h 9.7 km/h 73 % 0.0 mm
01:52 16.4 °C 11.8 °C 1017.8 hPa NNE 1.6 km/h 9.7 km/h 74 % 0.0 mm
01:57 16.2 °C 11.8 °C 1017.8 hPa NE 1.6 km/h 8.0 km/h 75 % 0.0 mm
02:02 15.9 °C 11.7 °C 1017.8 hPa North 3.2 km/h 8.0 km/h 76 % 0.0 mm
02:12 15.6 °C 11.6 °C 1017.8 hPa Calm   6.4 km/h 77 % 0.0 mm
02:17 15.5 °C 11.7 °C 1017.8 hPa NNE 3.2 km/h 6.4 km/h 78 % 0.0 mm
02:22 15.4 °C 11.6 °C 1017.8 hPa NNE 1.6 km/h 6.4 km/h 78 % 0.0 mm
02:32 15.2 °C 11.4 °C 1017.8 hPa Calm   4.8 km/h 78 % 0.0 mm
02:37 15.1 °C 11.5 °C 1017.8 hPa NNE 4.8 km/h 4.8 km/h 79 % 0.0 mm
02:42 15.0 °C 11.4 °C 1017.5 hPa NE 3.2 km/h 4.8 km/h 79 % 0.0 mm
02:47 14.9 °C 11.3 °C 1017.8 hPa NNE 3.2 km/h 4.8 km/h 79 % 0.0 mm
02:52 14.9 °C 11.5 °C 1017.5 hPa NNE 1.6 km/h 6.4 km/h 80 % 0.0 mm
02:57 14.8 °C 11.4 °C 1017.5 hPa NE 3.2 km/h 6.4 km/h 80 % 0.0 mm
03:02 14.7 °C 11.3 °C 1017.5 hPa Calm   6.4 km/h 80 % 0.0 mm
03:12 14.5 °C 11.3 °C 1017.5 hPa NNE 4.8 km/h 8.0 km/h 81 % 0.0 mm
03:17 14.4 °C 11.4 °C 1017.5 hPa NE 6.4 km/h 9.7 km/h 82 % 0.0 mm
03:22 14.4 °C 11.4 °C 1017.5 hPa North 1.6 km/h 9.7 km/h 82 % 0.0 mm
03:27 14.4 °C 11.4 °C 1017.5 hPa North 3.2 km/h 9.7 km/h 82 % 0.0 mm
03:32 14.4 °C 11.4 °C 1017.2 hPa Calm   9.7 km/h 82 % 0.0 mm
03:37 14.3 °C 11.5 °C 1017.2 hPa NNW 6.4 km/h 9.7 km/h 83 % 0.0 mm
03:42 14.3 °C 11.5 °C 1017.2 hPa NNE 6.4 km/h 9.7 km/h 83 % 0.0 mm
03:52 14.0 °C 11.3 °C 1017.2 hPa NNE 4.8 km/h 11.3 km/h 84 % 0.0 mm
03:57 13.9 °C 11.2 °C 1017.2 hPa NE 4.8 km/h 9.7 km/h 84 % 0.0 mm
04:02 13.9 °C 11.2 °C 1017.2 hPa NE 3.2 km/h 9.7 km/h 84 % 0.0 mm
04:12 14.2 °C 11.5 °C 1017.2 hPa North 1.6 km/h 9.7 km/h 84 % 0.0 mm
04:17 14.1 °C 11.4 °C 1017.2 hPa NNE 8.0 km/h 11.3 km/h 84 % 0.0 mm
04:22 14.0 °C 11.5 °C 1017.2 hPa Calm   11.3 km/h 85 % 0.0 mm
04:32 14.1 °C 11.6 °C 1017.2 hPa NNW 8.0 km/h 14.5 km/h 85 % 0.0 mm
04:37 14.1 °C 11.4 °C 1017.2 hPa NNW 1.6 km/h 9.7 km/h 84 % 0.0 mm
04:42 14.2 °C 11.5 °C 1017.2 hPa North 1.6 km/h 9.7 km/h 84 % 0.0 mm
04:52 14.1 °C 11.4 °C 1017.2 hPa Calm   8.0 km/h 84 % 0.0 mm
04:57 13.9 °C 11.4 °C 1017.2 hPa NNW 4.8 km/h 4.8 km/h 85 % 0.0 mm
05:02 13.9 °C 11.4 °C 1017.2 hPa North 8.0 km/h 8.0 km/h 85 % 0.0 mm
05:12 13.7 °C 11.4 °C 1017.2 hPa NNE 4.8 km/h 8.0 km/h 86 % 0.0 mm
05:17 13.7 °C 11.4 °C 1017.2 hPa North 3.2 km/h 9.7 km/h 86 % 0.0 mm
05:22 13.7 °C 11.4 °C 1017.2 hPa North 6.4 km/h 9.7 km/h 86 % 0.0 mm
05:32 13.7 °C 11.4 °C 1017.2 hPa NNE 4.8 km/h 9.7 km/h 86 % 0.0 mm
05:37 13.6 °C 11.3 °C 1017.2 hPa NNE 6.4 km/h 9.7 km/h 86 % 0.0 mm
05:42 13.6 °C 11.3 °C 1017.2 hPa NNE 1.6 km/h 9.7 km/h 86 % 0.0 mm
05:47 13.7 °C 11.4 °C 1017.2 hPa NNE 3.2 km/h 11.3 km/h 86 % 0.0 mm
05:52 13.8 °C 11.3 °C 1017.2 hPa NE 3.2 km/h 11.3 km/h 85 % 0.0 mm
06:02 13.6 °C 11.1 °C 1017.2 hPa NNW 1.6 km/h 8.0 km/h 85 % 0.0 mm
06:07 13.6 °C 11.3 °C 1017.2 hPa Calm   6.4 km/h 86 % 0.0 mm
06:12 13.6 °C 11.3 °C 1017.2 hPa North 1.6 km/h 6.4 km/h 86 % 0.0 mm
06:17 13.4 °C 10.9 °C 1017.2 hPa North 3.2 km/h 6.4 km/h 85 % 0.0 mm
06:22 13.3 °C 11.0 °C 1017.2 hPa NNE 6.4 km/h 6.4 km/h 86 % 0.0 mm
06:32 13.6 °C 11.5 °C 1017.2 hPa NNE 4.8 km/h 6.4 km/h 87 % 0.0 mm
06:37 14.1 °C 11.4 °C 1017.2 hPa Calm   6.4 km/h 84 % 0.0 mm
06:42 14.2 °C 11.4 °C 1017.2 hPa Calm   6.4 km/h 83 % 0.0 mm
06:52 14.5 °C 11.5 °C 1017.2 hPa Calm   6.4 km/h 82 % 0.0 mm
07:02 14.9 °C 11.7 °C 1017.2 hPa NNE 3.2 km/h 3.2 km/h 81 % 0.0 mm
07:07 15.1 °C 11.7 °C 1016.8 hPa NNE 1.6 km/h 3.2 km/h 80 % 0.0 mm
07:12 15.2 °C 11.8 °C 1016.8 hPa NNE 4.8 km/h 8.0 km/h 80 % 0.0 mm
07:17 15.3 °C 11.9 °C 1017.2 hPa ENE 4.8 km/h 8.0 km/h 80 % 0.0 mm
07:22 15.4 °C 11.8 °C 1017.2 hPa NNE 4.8 km/h 11.3 km/h 79 % 0.0 mm
07:32 15.6 °C 12.0 °C 1017.2 hPa NNE 3.2 km/h 12.9 km/h 79 % 0.0 mm
07:42 15.7 °C 11.7 °C 1017.2 hPa NE 9.7 km/h 12.9 km/h 77 % 0.0 mm
07:52 16.0 °C 12.0 °C 1017.2 hPa ENE 4.8 km/h 14.5 km/h 77 % 0.0 mm
07:57 16.2 °C 12.2 °C 1017.2 hPa ENE 4.8 km/h 14.5 km/h 77 % 0.0 mm
08:02 16.4 °C 12.6 °C 1017.2 hPa East 3.2 km/h 12.9 km/h 78 % 0.0 mm
08:12 16.6 °C 12.4 °C 1017.2 hPa ENE 3.2 km/h 8.0 km/h 76 % 0.0 mm
08:17 16.8 °C 12.5 °C 1017.2 hPa East 6.4 km/h 8.0 km/h 76 % 0.0 mm
08:22 16.8 °C 12.5 °C 1017.2 hPa East 4.8 km/h 9.7 km/h 76 % 0.0 mm
08:32 17.1 °C 12.4 °C 1017.5 hPa ENE 6.4 km/h 9.7 km/h 74 % 0.0 mm
08:42 17.1 °C 12.6 °C 1017.5 hPa NNE 4.8 km/h 9.7 km/h 75 % 0.0 mm
08:52 17.3 °C 12.6 °C 1017.5 hPa NE 3.2 km/h 9.7 km/h 74 % 0.0 mm
09:02 17.6 °C 12.7 °C 1017.5 hPa NNE 6.4 km/h 9.7 km/h 73 % 0.0 mm
09:12 17.8 °C 12.9 °C 1017.2 hPa ENE 4.8 km/h 11.3 km/h 73 % 0.0 mm
09:22 18.2 °C 13.1 °C 1017.2 hPa ENE 6.4 km/h 11.3 km/h 72 % 0.0 mm
09:32 18.4 °C 13.0 °C 1017.2 hPa ENE 8.0 km/h 12.9 km/h 71 % 0.0 mm
09:42 18.7 °C 13.5 °C 1017.2 hPa NE 6.4 km/h 12.9 km/h 72 % 0.0 mm
09:47 18.9 °C 13.3 °C 1017.2 hPa ENE 3.2 km/h 12.9 km/h 70 % 0.0 mm
09:52 19.1 °C 13.5 °C 1017.2 hPa NE 6.4 km/h 11.3 km/h 70 % 0.0 mm
10:02 19.6 °C 14.0 °C 1017.2 hPa NE 8.0 km/h 11.3 km/h 70 % 0.0 mm
10:12 19.7 °C 13.6 °C 1017.2 hPa NE 8.0 km/h 11.3 km/h 68 % 0.0 mm
10:17 19.8 °C 13.5 °C 1017.2 hPa NE 4.8 km/h 11.3 km/h 67 % 0.0 mm
10:22 19.9 °C 13.6 °C 1016.8 hPa ENE 8.0 km/h 12.9 km/h 67 % 0.0 mm
10:32 20.4 °C 14.1 °C 1016.8 hPa ENE 12.9 km/h 16.1 km/h 67 % 0.0 mm
10:37 20.5 °C 13.7 °C 1016.5 hPa NE 6.4 km/h 16.1 km/h 65 % 0.0 mm
10:42 20.7 °C 13.9 °C 1016.5 hPa ENE 9.7 km/h 16.1 km/h 65 % 0.0 mm
10:47 20.7 °C 13.6 °C 1016.5 hPa NE 8.0 km/h 16.1 km/h 64 % 0.0 mm
10:57 20.9 °C 14.3 °C 1016.8 hPa ENE 8.0 km/h 17.7 km/h 66 % 0.0 mm
11:02 21.2 °C 14.1 °C 1016.5 hPa ENE 9.7 km/h 17.7 km/h 64 % 0.0 mm
11:12 21.5 °C 14.4 °C 1016.5 hPa ENE 6.4 km/h 16.1 km/h 64 % 0.0 mm
11:17 21.7 °C 14.3 °C 1016.1 hPa ENE 14.5 km/h 16.1 km/h 63 % 0.0 mm
11:22 21.7 °C 14.3 °C 1016.5 hPa NE 8.0 km/h 19.3 km/h 63 % 0.0 mm
11:32 21.9 °C 14.3 °C 1016.5 hPa East 9.7 km/h 17.7 km/h 62 % 0.0 mm
11:37 22.2 °C 14.1 °C 1016.5 hPa East 6.4 km/h 17.7 km/h 60 % 0.0 mm
11:42 22.4 °C 14.5 °C 1016.1 hPa NE 9.7 km/h 16.1 km/h 61 % 0.0 mm
11:52 22.7 °C 14.8 °C 1016.1 hPa ENE 16.1 km/h 17.7 km/h 61 % 0.0 mm
12:02 22.9 °C 15.0 °C 1016.1 hPa East 3.2 km/h 19.3 km/h 61 % 0.0 mm
12:12 23.2 °C 14.7 °C 1016.1 hPa ENE 11.3 km/h 19.3 km/h 59 % 0.0 mm
12:17 23.4 °C 15.4 °C 1016.1 hPa ESE 8.0 km/h 19.3 km/h 61 % 0.0 mm
12:22 23.6 °C 15.6 °C 1016.1 hPa ENE 8.0 km/h 17.7 km/h 61 % 0.0 mm
12:32 23.9 °C 14.9 °C 1016.1 hPa ENE 3.2 km/h 17.7 km/h 57 % 0.0 mm
12:37 24.1 °C 15.3 °C 1016.1 hPa ENE 9.7 km/h 14.5 km/h 58 % 0.0 mm
12:42 24.1 °C 15.3 °C 1016.1 hPa East 8.0 km/h 14.5 km/h 58 % 0.0 mm
12:47 24.2 °C 15.4 °C 1016.1 hPa NE 9.7 km/h 14.5 km/h 58 % 0.0 mm
12:52 24.4 °C 15.1 °C 1016.1 hPa ENE 8.0 km/h 16.1 km/h 56 % 0.0 mm
13:02 24.8 °C 15.1 °C 1016.1 hPa ENE 4.8 km/h 14.5 km/h 55 % 0.0 mm
13:12 25.1 °C 15.1 °C 1016.1 hPa Calm   14.5 km/h 54 % 0.0 mm
13:17 25.4 °C 16.0 °C 1016.1 hPa ESE 8.0 km/h 12.9 km/h 56 % 0.0 mm
13:22 25.3 °C 16.2 °C 1016.1 hPa East 8.0 km/h 12.9 km/h 57 % 0.0 mm
13:32 25.2 °C 15.8 °C 1016.1 hPa NE 4.8 km/h 16.1 km/h 56 % 0.0 mm
13:42 25.7 °C 16.3 °C 1015.8 hPa SE 3.2 km/h 16.1 km/h 56 % 0.0 mm
13:52 25.9 °C 15.9 °C 1015.8 hPa Calm   11.3 km/h 54 % 0.0 mm
14:02 26.5 °C 16.7 °C 1015.8 hPa SE 1.6 km/h 9.7 km/h 55 % 0.0 mm
14:12 26.9 °C 16.8 °C 1015.8 hPa Calm   9.7 km/h 54 % 0.0 mm
14:17 27.2 °C 17.1 °C 1015.5 hPa ESE 3.2 km/h 12.9 km/h 54 % 0.0 mm
14:22 26.9 °C 16.5 °C 1015.8 hPa SE 3.2 km/h 12.9 km/h 53 % 0.0 mm
14:32 26.9 °C 16.5 °C 1015.5 hPa Calm   12.9 km/h 53 % 0.0 mm
14:37 27.3 °C 16.9 °C 1015.5 hPa ESE 9.7 km/h 9.7 km/h 53 % 0.0 mm
14:42 27.4 °C 16.7 °C 1015.5 hPa East 6.4 km/h 9.7 km/h 52 % 0.0 mm
14:47 27.4 °C 17.0 °C 1015.5 hPa SE 8.0 km/h 11.3 km/h 53 % 0.0 mm
14:52 27.2 °C 16.5 °C 1015.5 hPa East 3.2 km/h 11.3 km/h 52 % 0.0 mm
14:57 27.2 °C 16.5 °C 1015.5 hPa East 1.6 km/h 14.5 km/h 52 % 0.0 mm
15:02 27.2 °C 16.8 °C 1015.5 hPa NNE 11.3 km/h 14.5 km/h 53 % 0.0 mm
15:12 27.2 °C 17.4 °C 1015.5 hPa SE 4.8 km/h 14.5 km/h 55 % 0.0 mm
15:17 27.3 °C 16.9 °C 1015.5 hPa ENE 4.8 km/h 14.5 km/h 53 % 0.0 mm
15:22 27.3 °C 16.9 °C 1015.5 hPa SE 6.4 km/h 12.9 km/h 53 % 0.0 mm
15:32 27.4 °C 16.7 °C 1015.5 hPa ENE 3.2 km/h 8.0 km/h 52 % 0.0 mm
15:42 27.3 °C 16.6 °C 1015.1 hPa ESE 1.6 km/h 11.3 km/h 52 % 0.0 mm
15:52 27.5 °C 17.7 °C 1015.1 hPa ESE 4.8 km/h 14.5 km/h 55 % 0.0 mm
15:57 27.7 °C 17.2 °C 1015.1 hPa SSW 4.8 km/h 14.5 km/h 53 % 0.0 mm
16:02 28.1 °C 17.0 °C 1015.1 hPa SE 1.6 km/h 14.5 km/h 51 % 0.0 mm
16:12 27.8 °C 16.7 °C 1015.1 hPa East 6.4 km/h 9.7 km/h 51 % 0.0 mm
16:17 27.8 °C 16.7 °C 1015.1 hPa East 3.2 km/h 9.7 km/h 51 % 0.0 mm
16:22 28.1 °C 17.0 °C 1015.1 hPa ESE 1.6 km/h 11.3 km/h 51 % 0.0 mm
16:32 27.9 °C 16.5 °C 1015.1 hPa SE 4.8 km/h 11.3 km/h 50 % 0.0 mm
16:37 28.1 °C 16.4 °C 1015.1 hPa SE 6.4 km/h 12.9 km/h 49 % 0.0 mm
16:42 28.4 °C 17.6 °C 1015.1 hPa ENE 4.8 km/h 12.9 km/h 52 % 0.0 mm
16:47 28.7 °C 17.2 °C 1014.8 hPa South 8.0 km/h 12.9 km/h 50 % 0.0 mm
16:52 28.8 °C 17.3 °C 1015.1 hPa East 3.2 km/h 8.0 km/h 50 % 0.0 mm
16:57 28.3 °C 16.6 °C 1014.8 hPa ENE 3.2 km/h 11.3 km/h 49 % 0.0 mm
17:02 28.3 °C 16.6 °C 1014.8 hPa South 4.8 km/h 11.3 km/h 49 % 0.0 mm
17:12 28.8 °C 17.0 °C 1014.8 hPa ENE 8.0 km/h 12.9 km/h 49 % 0.0 mm
17:17 28.7 °C 16.9 °C 1014.8 hPa East 4.8 km/h 12.9 km/h 49 % 0.0 mm
17:22 28.6 °C 17.8 °C 1014.8 hPa SE 1.6 km/h 11.3 km/h 52 % 0.0 mm
17:32 28.7 °C 17.6 °C 1014.8 hPa South 3.2 km/h 11.3 km/h 51 % 0.0 mm
17:42 29.1 °C 17.0 °C 1014.8 hPa Calm   9.7 km/h 48 % 0.0 mm
17:52 29.0 °C 16.9 °C 1014.8 hPa ESE 1.6 km/h 8.0 km/h 48 % 0.0 mm
17:57 29.1 °C 16.6 °C 1014.8 hPa SE 3.2 km/h 8.0 km/h 47 % 0.0 mm
18:02 28.9 °C 16.8 °C 1014.8 hPa Calm   8.0 km/h 48 % 0.0 mm
18:12 28.9 °C 16.5 °C 1014.4 hPa Calm   11.3 km/h 47 % 0.0 mm
18:17 29.1 °C 16.6 °C 1014.4 hPa Calm   11.3 km/h 47 % 0.0 mm
18:22 29.1 °C 17.0 °C 1014.8 hPa SE 3.2 km/h 4.8 km/h 48 % 0.0 mm
18:32 29.2 °C 16.0 °C 1014.4 hPa ESE 3.2 km/h 8.0 km/h 45 % 0.0 mm
18:42 28.9 °C 16.1 °C 1014.4 hPa ESE 1.6 km/h 6.4 km/h 46 % 0.0 mm
18:47 28.8 °C 16.7 °C 1014.4 hPa East 1.6 km/h 6.4 km/h 48 % 0.0 mm
18:52 28.8 °C 16.7 °C 1014.4 hPa Calm   4.8 km/h 48 % 0.0 mm
19:02 28.7 °C 17.9 °C 1014.1 hPa SE 1.6 km/h 6.4 km/h 52 % 0.0 mm
19:12 28.3 °C 17.2 °C 1014.1 hPa Calm   6.4 km/h 51 % 0.0 mm
19:17 28.1 °C 17.3 °C 1014.1 hPa ESE 3.2 km/h 6.4 km/h 52 % 0.0 mm
19:22 27.8 °C 17.3 °C 1014.1 hPa ENE 4.8 km/h 6.4 km/h 53 % 0.0 mm
19:32 27.7 °C 17.2 °C 1014.4 hPa East 4.8 km/h 8.0 km/h 53 % 0.0 mm
19:37 27.6 °C 17.5 °C 1014.1 hPa ENE 1.6 km/h 8.0 km/h 54 % 0.0 mm
19:42 27.6 °C 17.7 °C 1014.1 hPa East 1.6 km/h 8.0 km/h 55 % 0.0 mm
19:47 27.6 °C 17.7 °C 1014.4 hPa Calm   6.4 km/h 55 % 0.0 mm
19:52 27.5 °C 17.4 °C 1014.4 hPa Calm   6.4 km/h 54 % 0.0 mm
20:02 27.6 °C 17.5 °C 1014.4 hPa East 1.6 km/h 6.4 km/h 54 % 0.0 mm
20:12 27.4 °C 17.6 °C 1014.4 hPa Calm   4.8 km/h 55 % 0.0 mm
20:17 27.3 °C 17.5 °C 1014.4 hPa Calm   4.8 km/h 55 % 0.0 mm
20:22 27.3 °C 17.8 °C 1014.4 hPa Calm   3.2 km/h 56 % 0.0 mm
20:27 27.2 °C 17.7 °C 1014.4 hPa Calm   1.6 km/h 56 % 0.0 mm
20:32 27.1 °C 17.6 °C 1014.4 hPa Calm     56 % 0.0 mm
20:37 26.8 °C 17.3 °C 1014.4 hPa ENE 3.2 km/h 3.2 km/h 56 % 0.0 mm
20:42 26.6 °C 17.4 °C 1014.4 hPa East 3.2 km/h 3.2 km/h 57 % 0.0 mm
20:52 26.2 °C 17.3 °C 1014.4 hPa East 3.2 km/h 4.8 km/h 58 % 0.0 mm
20:57 25.9 °C 17.3 °C 1014.4 hPa Calm   4.8 km/h 59 % 0.0 mm
21:02 25.8 °C 16.9 °C 1014.4 hPa Calm   4.8 km/h 58 % 0.0 mm
21:12 25.3 °C 16.7 °C 1014.4 hPa East 4.8 km/h 4.8 km/h 59 % 0.0 mm
21:17 25.2 °C 16.9 °C 1014.4 hPa Calm   4.8 km/h 60 % 0.0 mm
21:22 25.0 °C 16.7 °C 1014.8 hPa Calm   4.8 km/h 60 % 0.0 mm
21:32 24.3 °C 16.8 °C 1014.4 hPa Calm   4.8 km/h 63 % 0.0 mm
21:37 23.9 °C 16.7 °C 1014.4 hPa Calm   1.6 km/h 64 % 0.0 mm
21:42 23.6 °C 16.9 °C 1014.8 hPa Calm   1.6 km/h 66 % 0.0 mm
21:47 23.1 °C 16.6 °C 1014.8 hPa Calm     67 % 0.0 mm
21:52 22.7 °C 16.5 °C 1014.8 hPa Calm     68 % 0.0 mm
22:02 22.4 °C 16.2 °C 1014.8 hPa Calm   1.6 km/h 68 % 0.0 mm
22:12 22.3 °C 16.1 °C 1014.8 hPa Calm   1.6 km/h 68 % 0.0 mm
22:17 22.1 °C 15.9 °C 1015.1 hPa Calm     68 % 0.0 mm
22:22 21.7 °C 16.0 °C 1015.1 hPa Calm     70 % 0.0 mm
22:32 21.0 °C 16.2 °C 1015.1 hPa Calm     74 % 0.0 mm
22:37 20.9 °C 15.9 °C 1015.1 hPa Calm     73 % 0.0 mm
22:42 21.1 °C 15.9 °C 1015.1 hPa Calm     72 % 0.0 mm
22:47 21.1 °C 15.6 °C 1015.1 hPa NE 1.6 km/h   71 % 0.0 mm
22:52 20.9 °C 16.1 °C 1014.8 hPa NNE 4.8 km/h   74 % 0.0 mm
22:57 20.3 °C 15.9 °C 1014.8 hPa NNE 4.8 km/h 6.4 km/h 76 % 0.0 mm
23:02 20.0 °C 15.6 °C 1014.8 hPa North 3.2 km/h 6.4 km/h 76 % 0.0 mm
23:12 19.9 °C 15.7 °C 1014.8 hPa NW 1.6 km/h 6.4 km/h 77 % 0.0 mm
23:17 19.9 °C 15.7 °C 1014.8 hPa Calm   6.4 km/h 77 % 0.0 mm
23:22 20.1 °C 15.9 °C 1014.8 hPa NNE 1.6 km/h 4.8 km/h 77 % 0.0 mm
23:27 20.1 °C 15.9 °C 1014.8 hPa WNW 1.6 km/h 3.2 km/h 77 % 0.0 mm
23:32 19.6 °C 15.7 °C 1014.8 hPa WNW 3.2 km/h 3.2 km/h 78 % 0.0 mm
23:37 19.3 °C 15.8 °C 1015.1 hPa WNW 1.6 km/h 3.2 km/h 80 % 0.0 mm
23:42 19.4 °C 15.9 °C 1014.8 hPa Calm   3.2 km/h 80 % 0.0 mm
23:47 19.7 °C 15.8 °C 1014.8 hPa NNE 1.6 km/h 3.2 km/h 78 % 0.0 mm
23:52 19.8 °C 15.7 °C 1014.8 hPa NNE 1.6 km/h 3.2 km/h 77 % 0.0 mm
Meteo18
Compliments of Weather Underground - 4 mb

Script developed by  Jim McMurry - jmcmurry@mwt.net Adapted for the template by  Wim van der Kuil - Leuven-Template.eu

You find our weather info also at:

European Weather Network

Weather Underground

Equipment we use:

Weather-station
Davis Vue

Weather-program
Meteohub

Weather-server
Raspberry PI 2 B+

Provider
1 and 1

Davis Vue

Meteohub

Raspberry PI 2 B+

1 and 1